Groomtown, North Carolina
Current Conditions -  °F | °C
As of 12:54 PM on Thursday 27 Nov 2014 (Local Time) from KGSO Reporting Station
Broken Clouds Broken Clouds  
Wind Chill: 40°   Ceiling: 4800
Heat Index: 45°   Visibility: 10mi
Dew Point: 38°   Wind: 10mph
Humidity: 76%   Direction: 320°NW
Pressure: 30.07"   Gusts: NA
Location:  36.011°N, 79.8751°W
Report Text: KGSO 271754Z 32009KT 10SM SCT021 BKN048 BKN075 BKN250 07/03 A3007 RMK AO2 RAB33E49 SLP184 P0001 60012 T00720033 10072 20033 51007
Loading
Personal Weather Stations






























Interactive Weather Map New forecast layout! Learn more

10-Day Weather Forecast

Advertisements
Track Severe Weather on mobile